Time;durP1;ratioP1;P1;durP2;ratioP2;P2;SDS_P1;SDS_P2;PMS_P1;PMS_P2;Temp;Humidity;BMP_temperature;BMP_pressure;BME280_temperature;BME280_humidity;BME280_pressure;Samples;Min_cycle;Max_cycle;Signal;HPM_P1;HPM_P2
2021/05/19 00:01:43;;;;;;;12.27;3.03;;;16.40;79.60;;;;;;5103531;28;20247;-71
2021/05/19 00:04:11;;;;;;;7.27;2.73;;;16.30;80.50;;;;;;5095525;28;20698;-71
2021/05/19 00:06:38;;;;;;;13.17;2.67;;;16.20;81.20;;;;;;5084096;28;20213;-71
2021/05/19 00:09:09;;;;;;;7.50;2.40;;;16.30;82.00;;;;;;5085400;28;20721;-71
2021/05/19 00:11:37;;;;;;;13.23;2.80;;;16.20;82.70;;;;;;5100419;28;20252;-71
2021/05/19 00:14:05;;;;;;;11.97;2.70;;;16.20;82.90;;;;;;5097020;28;20217;-71
2021/05/19 00:16:33;;;;;;;16.07;2.80;;;16.20;83.30;;;;;;5081760;28;20216;-71
2021/05/19 00:19:00;;;;;;;12.47;2.97;;;16.20;83.90;;;;;;5107234;28;20242;-71
2021/05/19 00:21:29;;;;;;;10.67;3.03;;;16.10;84.40;;;;;;5104620;28;20229;-71
2021/05/19 00:23:56;;;;;;;10.27;2.83;;;16.10;84.50;;;;;;5102930;28;20262;-71
2021/05/19 00:26:24;;;;;;;8.90;2.67;;;16.10;84.70;;;;;;5103737;28;20215;-71
2021/05/19 00:28:56;;;;;;;14.47;3.17;;;16.00;85.20;;;;;;5106134;28;20219;-71
2021/05/19 00:31:25;;;;;;;12.83;3.07;;;16.00;85.80;;;;;;5104158;28;20212;-71
2021/05/19 00:33:53;;;;;;;8.23;3.73;;;16.00;86.00;;;;;;5090081;28;20212;-71
2021/05/19 00:36:20;;;;;;;12.83;2.80;;;16.00;86.30;;;;;;5104551;28;20216;-71
2021/05/19 00:38:47;;;;;;;8.13;3.43;;;16.00;86.50;;;;;;5105691;28;20224;-71
2021/05/19 00:41:14;;;;;;;9.40;2.80;;;16.10;87.00;;;;;;5084336;28;20231;-71
2021/05/19 00:43:41;;;;;;;9.57;2.87;;;16.10;87.30;;;;;;5104524;28;20448;-71
2021/05/19 00:46:09;;;;;;;11.63;2.80;;;16.10;87.50;;;;;;5106177;28;20216;-71
2021/05/19 00:48:37;;;;;;;11.13;3.23;;;16.10;87.60;;;;;;5103511;28;20235;-71
2021/05/19 00:51:06;;;;;;;10.50;3.23;;;16.10;87.70;;;;;;5085247;28;20204;-71
2021/05/19 00:53:34;;;;;;;10.33;2.97;;;16.10;88.00;;;;;;5106862;28;20200;-71
2021/05/19 00:56:01;;;;;;;13.33;3.13;;;16.10;88.20;;;;;;5081643;28;20258;-71
2021/05/19 00:58:29;;;;;;;9.27;2.70;;;16.10;88.30;;;;;;5099575;28;20217;-70
2021/05/19 01:00:56;;;;;;;14.17;3.50;;;16.10;88.10;;;;;;5106350;28;20652;-70
2021/05/19 01:03:26;;;;;;;12.53;3.30;;;16.10;88.10;;;;;;5103475;28;20213;-70
2021/05/19 01:06:00;;;;;;;6.90;3.10;;;16.00;88.40;;;;;;5105899;28;20223;-70
2021/05/19 01:11:15;;;;;;;8.03;2.83;;;16.00;88.80;;;;;;5102942;28;20217;-70
2021/05/19 01:13:44;;;;;;;12.90;3.83;;;16.00;88.80;;;;;;5104925;28;20273;-70
2021/05/19 01:16:13;;;;;;;10.90;3.10;;;16.00;89.10;;;;;;5106413;28;20211;-70
2021/05/19 01:18:41;;;;;;;8.20;3.57;;;16.00;89.30;;;;;;5104140;28;20270;-70
2021/05/19 01:21:10;;;;;;;6.73;3.20;;;16.00;89.40;;;;;;5105020;28;20667;-70
2021/05/19 01:23:39;;;;;;;12.03;3.50;;;16.00;89.50;;;;;;5103830;28;20740;-71
2021/05/19 01:26:09;;;;;;;9.70;2.37;;;16.00;89.60;;;;;;5100643;28;20207;-71
2021/05/19 01:28:38;;;;;;;9.83;3.33;;;16.00;89.70;;;;;;5104088;28;20289;-71
2021/05/19 01:31:08;;;;;;;7.33;3.17;;;16.00;89.90;;;;;;5087510;28;20209;-71
2021/05/19 01:33:36;;;;;;;7.80;3.23;;;15.90;89.90;;;;;;5103409;28;20209;-71
2021/05/19 01:36:04;;;;;;;16.40;4.07;;;15.90;90.10;;;;;;5083852;28;20202;-71
2021/05/19 01:38:32;;;;;;;11.53;3.57;;;15.90;90.20;;;;;;5105794;28;20209;-71
2021/05/19 01:40:59;;;;;;;15.13;3.20;;;15.90;90.30;;;;;;5083954;28;20208;-71
2021/05/19 01:43:34;;;;;;;9.73;3.33;;;15.90;90.30;;;;;;5102749;28;20252;-71
2021/05/19 01:46:02;;;;;;;7.40;3.50;;;15.90;90.30;;;;;;5100755;28;20219;-71
2021/05/19 01:48:32;;;;;;;8.03;3.50;;;15.90;90.40;;;;;;5104137;28;20208;-71
2021/05/19 01:51:00;;;;;;;7.97;3.37;;;15.90;90.40;;;;;;5099490;28;20205;-71
2021/05/19 01:53:29;;;;;;;13.10;3.57;;;15.90;90.30;;;;;;5107284;28;20201;-71
2021/05/19 01:55:58;;;;;;;6.73;2.97;;;15.90;90.40;;;;;;5092880;28;20654;-71
2021/05/19 01:58:25;;;;;;;13.93;3.60;;;15.90;90.40;;;;;;5107364;28;20402;-71
2021/05/19 02:00:53;;;;;;;8.93;3.47;;;15.80;90.50;;;;;;5103374;28;20637;-71
2021/05/19 02:03:20;;;;;;;11.23;3.60;;;15.80;90.50;;;;;;5094734;28;20257;-71
2021/05/19 02:05:47;;;;;;;13.07;4.17;;;15.80;90.60;;;;;;5108526;28;20208;-71
2021/05/19 02:08:14;;;;;;;10.20;3.83;;;15.80;90.60;;;;;;5109564;28;20212;-71
2021/05/19 02:10:45;;;;;;;11.00;3.40;;;15.80;90.70;;;;;;5090722;28;20217;-71
2021/05/19 02:13:13;;;;;;;10.33;3.40;;;15.80;90.60;;;;;;5110018;28;20216;-71
2021/05/19 02:15:40;;;;;;;9.13;3.37;;;15.80;90.70;;;;;;5090374;28;20307;-70
2021/05/19 02:18:07;;;;;;;12.47;3.47;;;15.70;90.70;;;;;;5108247;28;20217;-71
2021/05/19 02:20:35;;;;;;;9.17;3.27;;;15.70;90.80;;;;;;5110591;28;20419;-71
2021/05/19 02:23:02;;;;;;;7.63;3.73;;;15.80;90.80;;;;;;5109705;28;20240;-71
2021/05/19 02:25:29;;;;;;;9.10;3.30;;;15.70;90.80;;;;;;5091406;28;20292;-71
2021/05/19 02:27:57;;;;;;;9.37;4.17;;;15.70;90.80;;;;;;5107908;28;20272;-71
2021/05/19 02:30:27;;;;;;;9.10;3.03;;;15.70;90.90;;;;;;5092743;28;20204;-71
2021/05/19 02:32:55;;;;;;;11.10;3.30;;;15.70;90.90;;;;;;5107516;28;20216;-71
2021/05/19 02:35:22;;;;;;;6.73;3.40;;;15.70;90.90;;;;;;5110150;28;20551;-71
2021/05/19 02:37:49;;;;;;;7.47;3.40;;;15.60;90.80;;;;;;5088656;28;20219;-71
2021/05/19 02:40:17;;;;;;;9.70;3.30;;;15.60;90.80;;;;;;5100494;28;20477;-71
2021/05/19 02:42:45;;;;;;;11.93;4.20;;;15.60;90.70;;;;;;5109800;28;20668;-72
2021/05/19 02:45:13;;;;;;;12.10;3.80;;;15.50;90.70;;;;;;5089303;28;20220;-71
2021/05/19 02:47:40;;;;;;;8.47;3.40;;;15.50;91.00;;;;;;5086179;28;20402;-72
2021/05/19 02:50:08;;;;;;;13.23;3.50;;;15.40;91.00;;;;;;5085797;28;20529;-72
2021/05/19 02:52:35;;;;;;;12.50;3.90;;;15.40;90.70;;;;;;5088048;28;20835;-72
2021/05/19 02:55:03;;;;;;;13.23;3.90;;;15.40;90.80;;;;;;5085210;28;20220;-72
2021/05/19 02:57:30;;;;;;;12.47;4.20;;;15.40;90.90;;;;;;5085211;28;20216;-72
2021/05/19 02:59:57;;;;;;;10.20;4.53;;;15.40;91.00;;;;;;5100338;28;20219;-72
2021/05/19 03:02:24;;;;;;;17.73;5.07;;;15.50;91.10;;;;;;5103788;28;20228;-72
2021/05/19 03:04:52;;;;;;;13.10;5.10;;;15.50;91.10;;;;;;5101655;28;20640;-72
2021/05/19 03:07:19;;;;;;;11.70;5.07;;;15.50;91.10;;;;;;5104932;28;20218;-71
2021/05/19 03:09:46;;;;;;;10.90;5.20;;;15.50;91.10;;;;;;5100959;28;20224;-72
2021/05/19 03:12:13;;;;;;;8.13;5.53;;;15.60;91.10;;;;;;5097270;28;20217;-72
2021/05/19 03:14:41;;;;;;;14.37;5.17;;;15.60;91.10;;;;;;5104761;28;20216;-72
2021/05/19 03:17:08;;;;;;;10.60;6.10;;;15.60;91.10;;;;;;5101298;28;20213;-72
2021/05/19 03:19:35;;;;;;;10.20;6.10;;;15.60;91.00;;;;;;5103733;28;20308;-72
2021/05/19 03:22:03;;;;;;;9.93;5.87;;;15.60;91.00;;;;;;5083919;28;20244;-72
2021/05/19 03:24:30;;;;;;;6.83;5.37;;;15.60;91.00;;;;;;5102836;28;20535;-72
2021/05/19 03:26:58;;;;;;;8.77;5.50;;;15.50;91.00;;;;;;5102528;28;20212;-72
2021/05/19 03:29:25;;;;;;;8.13;5.30;;;15.50;91.00;;;;;;5097589;28;20209;-71
2021/05/19 03:31:52;;;;;;;6.53;3.97;;;15.50;91.00;;;;;;5086133;28;20225;-72
2021/05/19 03:34:20;;;;;;;10.03;4.10;;;15.40;90.90;;;;;;5101547;28;20217;-72
2021/05/19 03:36:47;;;;;;;6.27;2.90;;;15.30;90.80;;;;;;5086694;28;20599;-71
2021/05/19 03:39:14;;;;;;;4.27;2.23;;;15.30;90.70;;;;;;5101123;28;20224;-72
2021/05/19 03:41:42;;;;;;;3.60;2.50;;;15.20;90.40;;;;;;5076024;28;20206;-72
2021/05/19 03:44:09;;;;;;;3.93;2.10;;;15.10;90.30;;;;;;5104545;28;20223;-72
2021/05/19 03:46:37;;;;;;;3.43;2.00;;;15.10;90.10;;;;;;5101382;28;20247;-71
2021/05/19 03:49:05;;;;;;;5.00;1.80;;;15.10;90.00;;;;;;5103090;28;20208;-72
2021/05/19 03:51:34;;;;;;;1.60;1.50;;;15.00;90.00;;;;;;5084187;28;20249;-72
2021/05/19 03:54:02;;;;;;;3.33;1.60;;;15.00;90.00;;;;;;5085951;28;20213;-72
2021/05/19 03:56:30;;;;;;;2.47;1.80;;;15.00;90.20;;;;;;5101459;28;20644;-72
2021/05/19 03:58:57;;;;;;;1.40;1.30;;;14.90;90.20;;;;;;5098995;28;20206;-72
2021/05/19 04:01:24;;;;;;;2.23;1.57;;;14.90;90.10;;;;;;5101105;28;20539;-72
2021/05/19 04:03:52;;;;;;;3.70;1.67;;;14.90;90.10;;;;;;5085208;28;20238;-71
2021/05/19 04:06:24;;;;;;;3.17;1.50;;;14.90;90.10;;;;;;5101766;28;20220;-72
2021/05/19 04:08:52;;;;;;;1.70;1.37;;;14.90;90.10;;;;;;5106525;28;20212;-72
2021/05/19 04:11:20;;;;;;;1.80;1.20;;;14.80;90.10;;;;;;5099630;28;20215;-72
2021/05/19 04:13:47;;;;;;;1.60;1.13;;;14.80;90.10;;;;;;5100427;28;20640;-72
2021/05/19 04:16:14;;;;;;;2.17;1.20;;;14.80;90.00;;;;;;5100943;28;20209;-71
2021/05/19 04:18:41;;;;;;;3.17;1.07;;;14.70;90.00;;;;;;5103963;28;20216;-72
2021/05/19 04:21:08;;;;;;;1.53;1.10;;;14.70;90.00;;;;;;5083034;28;20606;-72
2021/05/19 04:23:36;;;;;;;1.93;0.87;;;14.70;90.20;;;;;;5078703;28;20316;-72
2021/05/19 04:26:03;;;;;;;1.10;1.00;;;14.60;90.10;;;;;;5085876;28;20213;-72
2021/05/19 04:28:30;;;;;;;1.97;1.00;;;14.60;90.10;;;;;;5082974;28;20224;-72
2021/05/19 04:30:58;;;;;;;1.70;1.03;;;14.60;90.10;;;;;;5085624;28;20217;-71
2021/05/19 04:33:25;;;;;;;2.53;1.20;;;14.60;90.00;;;;;;5101993;28;20223;-71
2021/05/19 04:35:52;;;;;;;1.07;0.90;;;14.60;90.00;;;;;;5105123;28;20221;-71
2021/05/19 04:38:19;;;;;;;1.87;1.00;;;14.50;89.90;;;;;;5103589;28;20240;-71
2021/05/19 04:40:47;;;;;;;2.87;1.10;;;14.50;89.80;;;;;;5083333;28;20214;-72
2021/05/19 04:43:14;;;;;;;3.83;1.10;;;14.50;90.00;;;;;;5100029;28;20611;-72
2021/05/19 04:45:42;;;;;;;2.00;0.93;;;14.50;90.00;;;;;;5085155;28;20204;-72
2021/05/19 04:48:09;;;;;;;1.20;1.10;;;14.50;89.70;;;;;;5102720;28;20211;-72
2021/05/19 04:50:38;;;;;;;4.07;1.13;;;14.50;89.60;;;;;;5100328;28;20288;-71
2021/05/19 04:53:09;;;;;;;1.20;1.00;;;14.50;89.60;;;;;;5097306;28;20220;-71
2021/05/19 04:55:37;;;;;;;1.97;1.03;;;14.60;89.50;;;;;;5099702;28;20307;-72
2021/05/19 04:58:06;;;;;;;1.87;0.70;;;14.70;89.50;;;;;;5102757;28;20209;-71
2021/05/19 05:00:35;;;;;;;1.87;1.00;;;14.70;88.80;;;;;;5095749;28;20624;-71
2021/05/19 05:03:08;;;;;;;2.40;1.00;;;14.80;88.40;;;;;;5099897;28;20233;-72
2021/05/19 05:05:35;;;;;;;1.37;0.87;;;14.90;88.20;;;;;;5101263;28;20208;-71
2021/05/19 05:08:03;;;;;;;1.33;0.70;;;15.00;87.30;;;;;;5106789;28;20418;-72
2021/05/19 05:10:30;;;;;;;2.87;0.97;;;15.10;86.50;;;;;;5089012;28;20623;-72
2021/05/19 05:12:57;;;;;;;3.50;0.70;;;15.20;86.40;;;;;;5086625;28;20304;-71
2021/05/19 05:15:24;;;;;;;3.40;0.73;;;15.20;85.60;;;;;;5085418;28;20664;-71
2021/05/19 05:17:52;;;;;;;1.43;0.70;;;15.30;85.50;;;;;;5105787;28;20543;-71
2021/05/19 05:20:21;;;;;;;1.23;0.60;;;15.30;84.60;;;;;;5104438;28;20216;-71
2021/05/19 05:22:48;;;;;;;1.30;0.53;;;15.30;84.10;;;;;;5087316;28;20252;-71
2021/05/19 05:25:17;;;;;;;2.40;0.80;;;15.40;84.10;;;;;;5087039;28;20660;-71
2021/05/19 05:27:48;;;;;;;1.67;0.60;;;15.50;83.80;;;;;;5086984;28;20218;-71
2021/05/19 05:30:16;;;;;;;2.43;0.67;;;15.60;82.80;;;;;;5102546;28;20213;-71
2021/05/19 05:32:44;;;;;;;0.40;0.40;;;15.70;82.50;;;;;;5107192;28;20219;-71
2021/05/19 05:35:12;;;;;;;0.70;0.70;;;16.00;81.60;;;;;;5104684;28;20539;-71
2021/05/19 05:37:40;;;;;;;0.33;0.33;;;16.10;80.30;;;;;;5105339;28;20219;-71
2021/05/19 05:40:08;;;;;;;1.03;0.40;;;16.30;79.30;;;;;;5087017;28;20611;-71
2021/05/19 05:42:36;;;;;;;0.53;0.50;;;16.40;78.40;;;;;;5105615;28;20663;-71
2021/05/19 05:45:05;;;;;;;0.30;0.30;;;16.40;77.40;;;;;;5103132;28;20299;-70
2021/05/19 05:47:34;;;;;;;1.00;0.50;;;16.40;77.50;;;;;;5098370;28;20527;-71
2021/05/19 05:50:03;;;;;;;3.10;0.53;;;16.50;76.10;;;;;;5085696;28;20644;-71
2021/05/19 05:52:31;;;;;;;0.73;0.50;;;16.50;75.60;;;;;;5104069;28;20213;-71
2021/05/19 05:54:59;;;;;;;3.10;0.47;;;16.60;75.80;;;;;;5105926;28;20247;-71
2021/05/19 05:57:27;;;;;;;0.43;0.33;;;16.70;75.10;;;;;;5101992;28;20231;-72
2021/05/19 05:59:54;;;;;;;1.37;0.30;;;16.80;74.20;;;;;;5099864;28;20216;-71
2021/05/19 06:02:21;;;;;;;1.07;0.40;;;16.70;73.70;;;;;;5084143;28;20304;-71
2021/05/19 06:04:49;;;;;;;0.97;0.43;;;16.70;74.50;;;;;;5087200;28;20280;-71
2021/05/19 06:07:16;;;;;;;0.60;0.40;;;16.80;73.80;;;;;;5103230;28;20311;-71
2021/05/19 06:09:50;;;;;;;1.03;0.40;;;16.80;74.30;;;;;;5104521;28;20213;-71
2021/05/19 06:12:18;;;;;;;0.93;0.50;;;16.80;73.70;;;;;;5084571;28;20220;-71
2021/05/19 06:14:46;;;;;;;0.30;0.30;;;16.90;73.00;;;;;;5086854;28;20205;-71
2021/05/19 06:17:14;;;;;;;0.47;0.40;;;17.00;73.00;;;;;;5085324;28;20212;-71
2021/05/19 06:19:42;;;;;;;0.40;0.30;;;17.20;71.70;;;;;;5086097;28;20304;-71
2021/05/19 06:22:10;;;;;;;0.20;0.20;;;17.50;70.80;;;;;;5085645;28;20240;-71
2021/05/19 06:24:38;;;;;;;0.27;0.27;;;17.70;71.30;;;;;;5103250;28;20260;-71
2021/05/19 06:27:05;;;;;;;0.30;0.30;;;18.00;69.00;;;;;;5104101;28;20208;-71
2021/05/19 06:29:32;;;;;;;0.20;0.17;;;18.00;67.40;;;;;;5103034;28;20217;-71
2021/05/19 06:31:59;;;;;;;0.20;0.20;;;18.20;68.30;;;;;;5084431;28;20303;-71
2021/05/19 06:34:27;;;;;;;0.40;0.40;;;18.20;66.40;;;;;;5101591;28;20208;-71
2021/05/19 06:36:54;;;;;;;0.40;0.40;;;18.10;64.30;;;;;;5104874;28;20684;-71
2021/05/19 06:39:22;;;;;;;0.40;0.23;;;18.10;65.00;;;;;;5097401;28;20217;-71
2021/05/19 06:41:51;;;;;;;0.60;0.50;;;18.00;63.80;;;;;;5097106;28;20637;-71
2021/05/19 06:44:19;;;;;;;0.40;0.40;;;18.20;64.90;;;;;;5104688;28;20266;-71
2021/05/19 06:46:47;;;;;;;0.97;0.33;;;18.30;63.50;;;;;;5083606;28;20217;-71
2021/05/19 06:49:15;;;;;;;0.10;0.10;;;18.40;64.50;;;;;;5100549;28;20239;-71
2021/05/19 06:51:42;;;;;;;0.33;0.30;;;18.60;63.30;;;;;;5102276;28;20212;-71
2021/05/19 06:54:11;;;;;;;0.43;0.30;;;18.80;63.60;;;;;;5085633;28;20228;-71
2021/05/19 06:56:45;;;;;;;0.67;0.20;;;18.90;61.80;;;;;;5085126;28;20307;-72
2021/05/19 06:59:14;;;;;;;1.60;0.50;;;18.90;60.30;;;;;;5101852;28;20211;-72
2021/05/19 07:01:41;;;;;;;0.57;0.40;;;18.90;61.60;;;;;;5083190;28;20209;-71
2021/05/19 07:04:08;;;;;;;0.60;0.40;;;18.90;59.80;;;;;;5102148;28;20569;-71
2021/05/19 07:06:36;;;;;;;2.07;0.90;;;18.90;59.50;;;;;;5102739;28;20550;-71
2021/05/19 07:09:04;;;;;;;0.20;0.20;;;18.90;59.60;;;;;;5102769;28;20640;-71
2021/05/19 07:11:31;;;;;;;1.17;0.20;;;19.00;60.60;;;;;;5102115;28;20578;-71
2021/05/19 07:14:01;;;;;;;0.30;0.30;;;19.10;59.30;;;;;;5104458;28;20786;-71
2021/05/19 07:16:30;;;;;;;0.40;0.30;;;19.20;58.60;;;;;;5085318;28;20212;-71
2021/05/19 07:18:57;;;;;;;0.20;0.20;;;19.20;58.80;;;;;;5101187;28;20300;-71
2021/05/19 07:21:25;;;;;;;0.80;0.30;;;19.30;58.60;;;;;;5103508;28;20220;-71
2021/05/19 07:23:52;;;;;;;1.33;0.20;;;19.30;57.70;;;;;;5081874;28;20242;-72
2021/05/19 07:26:21;;;;;;;0.93;0.60;;;19.30;57.90;;;;;;5104188;28;20216;-72
2021/05/19 07:28:50;;;;;;;0.30;0.30;;;19.40;56.50;;;;;;5097167;28;20209;-72
2021/05/19 07:31:17;;;;;;;1.90;0.20;;;19.40;56.20;;;;;;5077729;28;20639;-72
2021/05/19 07:33:46;;;;;;;1.27;0.23;;;19.40;55.60;;;;;;5096174;28;20232;-72
2021/05/19 07:36:13;;;;;;;0.20;0.20;;;19.30;55.80;;;;;;5103847;28;20216;-72
2021/05/19 07:38:40;;;;;;;0.27;0.27;;;19.30;56.50;;;;;;5100809;28;20221;-71
2021/05/19 07:41:07;;;;;;;0.50;0.27;;;19.40;55.80;;;;;;5100183;28;20223;-71
2021/05/19 07:43:34;;;;;;;0.20;0.20;;;19.40;55.90;;;;;;5103131;28;20240;-71
2021/05/19 07:46:01;;;;;;;0.73;0.60;;;19.60;56.90;;;;;;5099393;28;20430;-71
2021/05/19 07:48:27;;;;;;;1.30;0.70;;;19.80;56.60;;;;;;5102267;28;20506;-72
2021/05/19 07:50:53;;;;;;;0.20;0.20;;;19.90;55.40;;;;;;5100945;28;20197;-72
2021/05/19 07:53:19;;;;;;;0.30;0.30;;;20.00;54.30;;;;;;5103831;28;20256;-72
2021/05/19 07:55:57;;;;;;;1.03;1.00;;;20.10;54.60;;;;;;5101985;28;20211;-72
2021/05/19 07:58:30;;;;;;;0.57;0.20;;;20.40;55.90;;;;;;5097561;28;20199;-72
2021/05/19 08:03:22;;;;;;;0.57;0.30;;;21.20;55.50;;;;;;5100880;28;20530;-72
2021/05/19 08:05:48;;;;;;;2.40;0.77;;;21.50;54.20;;;;;;5102990;28;20204;-72
2021/05/19 08:08:14;;;;;;;1.60;0.40;;;21.60;52.90;;;;;;5082308;28;20589;-72
2021/05/19 08:10:42;;;;;;;0.50;0.30;;;21.40;50.60;;;;;;5078120;28;20615;-72
2021/05/19 08:13:09;;;;;;;0.20;0.20;;;21.20;52.20;;;;;;5100338;28;20279;-72
2021/05/19 08:15:35;;;;;;;1.40;0.20;;;21.20;53.10;;;;;;5082187;28;20197;-72
2021/05/19 08:18:06;;;;;;;2.80;0.30;;;21.20;53.20;;;;;;5102691;28;20287;-72
2021/05/19 08:20:33;;;;;;;0.10;0.10;;;21.20;52.60;;;;;;5099343;28;20216;-72
2021/05/19 08:23:00;;;;;;;2.10;0.50;;;21.20;51.80;;;;;;5101118;28;22132;-71
2021/05/19 08:25:28;;;;;;;0.20;0.20;;;21.00;52.30;;;;;;5102008;28;20219;-72
2021/05/19 08:27:55;;;;;;;0.50;0.50;;;21.00;53.30;;;;;;5101542;28;20208;-73
2021/05/19 08:30:23;;;;;;;1.83;0.30;;;21.20;53.50;;;;;;5101453;28;20209;-73
2021/05/19 08:32:54;;;;;;;0.87;0.30;;;21.60;53.30;;;;;;5080763;28;20619;-72
2021/05/19 08:35:21;;;;;;;1.50;0.37;;;21.90;51.70;;;;;;5103629;28;20215;-73
2021/05/19 08:37:48;;;;;;;0.47;0.47;;;22.10;51.70;;;;;;5107942;28;20208;-73
2021/05/19 08:40:15;;;;;;;0.83;0.40;;;22.40;51.70;;;;;;5104208;28;20213;-73
2021/05/19 08:42:42;;;;;;;2.33;0.60;;;22.60;51.20;;;;;;5106908;28;20208;-72
2021/05/19 08:45:10;;;;;;;0.40;0.40;;;22.80;51.80;;;;;;5100215;28;20240;-72
2021/05/19 08:47:37;;;;;;;3.07;0.50;;;23.00;51.20;;;;;;5099664;28;20212;-72
2021/05/19 08:50:08;;;;;;;1.10;0.60;;;23.10;48.20;;;;;;5088904;28;20644;-72
2021/05/19 08:52:38;;;;;;;0.60;0.40;;;22.90;50.00;;;;;;5102711;28;20208;-72
2021/05/19 08:55:12;;;;;;;0.60;0.40;;;23.00;48.20;;;;;;5106963;28;20227;-72
2021/05/19 08:57:41;;;;;;;0.40;0.40;;;23.00;48.40;;;;;;5084293;28;20209;-72
2021/05/19 09:00:09;;;;;;;0.20;0.20;;;23.00;49.50;;;;;;5098357;28;20220;-71
2021/05/19 09:02:37;;;;;;;0.27;0.27;;;23.30;48.10;;;;;;5099669;28;20213;-72
2021/05/19 09:05:06;;;;;;;5.50;0.70;;;23.40;50.40;;;;;;5106330;28;20232;-73
2021/05/19 09:07:37;;;;;;;0.20;0.20;;;23.60;49.70;;;;;;5102278;28;20205;-73
2021/05/19 09:10:18;;;;;;;0.60;0.50;;;23.80;48.60;;;;;;5107624;28;20221;-73
2021/05/19 09:12:45;;;;;;;0.40;0.40;;;24.00;49.40;;;;;;5101561;28;20219;-73
2021/05/19 09:15:13;;;;;;;2.47;0.50;;;24.20;49.60;;;;;;5102295;28;20221;-73
2021/05/19 09:17:40;;;;;;;1.80;0.70;;;24.30;47.80;;;;;;5106000;28;20223;-72
2021/05/19 09:20:15;;;;;;;0.60;0.30;;;24.40;44.60;;;;;;5103315;28;20219;-73
2021/05/19 09:22:47;;;;;;;0.60;0.53;;;24.10;45.60;;;;;;5105503;28;20321;-72
2021/05/19 09:25:22;;;;;;;0.30;0.20;;;24.00;47.00;;;;;;5086101;28;20271;-73
2021/05/19 09:27:52;;;;;;;0.33;0.30;;;24.00;47.50;;;;;;5104440;28;20302;-73
2021/05/19 09:30:43;;;;;;;0.30;0.30;;;24.10;46.90;;;;;;5104976;28;20213;-72
2021/05/19 09:33:30;;;;;;;0.40;0.40;;;24.10;44.00;;;;;;5066061;28;20590;-73
2021/05/19 09:36:15;;;;;;;0.37;0.37;;;24.00;44.40;;;;;;5103105;28;20209;-73
2021/05/19 09:38:46;;;;;;;1.10;0.50;;;23.70;47.70;;;;;;5101131;28;20208;-73
2021/05/19 09:41:19;;;;;;;0.30;0.30;;;23.80;47.90;;;;;;5106172;28;20758;-73
2021/05/19 09:43:47;;;;;;;0.30;0.30;;;24.00;46.40;;;;;;5104470;28;20234;-73
2021/05/19 09:46:27;;;;;;;0.30;0.30;;;24.20;44.50;;;;;;5103173;28;20201;-73
2021/05/19 09:49:14;;;;;;;0.30;0.30;;;24.00;44.60;;;;;;5104499;28;20206;-73
2021/05/19 09:51:53;;;;;;;0.47;0.33;;;23.80;44.30;;;;;;5100933;28;20220;-73
2021/05/19 09:54:39;;;;;;;0.83;0.27;;;23.90;44.20;;;;;;5101650;28;20700;-73
2021/05/19 09:57:09;;;;;;;0.20;0.20;;;24.00;45.90;;;;;;5065786;28;20231;-73
2021/05/19 09:59:39;;;;;;;0.67;0.43;;;24.20;44.40;;;;;;5102273;28;20562;-73
2021/05/19 10:02:06;;;;;;;0.77;0.23;;;24.30;43.30;;;;;;5101702;28;20209;-73
2021/05/19 10:04:44;;;;;;;0.30;0.30;;;24.30;45.50;;;;;;5102479;28;20229;-72
2021/05/19 10:07:17;;;;;;;0.60;0.40;;;24.30;46.00;;;;;;5104488;28;20238;-72
2021/05/19 10:09:45;;;;;;;2.30;0.30;;;24.10;46.00;;;;;;5103977;28;20282;-73
2021/05/19 10:12:13;;;;;;;0.60;0.30;;;24.30;45.30;;;;;;5087004;28;20632;-74
2021/05/19 10:14:41;;;;;;;0.60;0.40;;;24.50;46.40;;;;;;5101578;28;20323;-73
2021/05/19 10:17:11;;;;;;;1.40;0.50;;;24.80;45.80;;;;;;5103117;28;20231;-73
2021/05/19 10:20:04;;;;;;;1.07;0.40;;;24.80;45.80;;;;;;5104598;28;20636;-73
2021/05/19 10:22:35;;;;;;;0.33;0.33;;;24.90;46.70;;;;;;5098625;28;20251;-73
2021/05/19 10:25:05;;;;;;;0.40;0.40;;;25.10;45.50;;;;;;5105331;28;20325;-74
2021/05/19 10:27:49;;;;;;;0.43;0.40;;;25.20;45.20;;;;;;5101913;28;20294;-73
2021/05/19 10:30:41;;;;;;;0.30;0.30;;;25.30;43.70;;;;;;5085415;28;20208;-73
2021/05/19 10:33:27;;;;;;;0.87;0.30;;;25.20;43.90;;;;;;5083262;28;20640;-73
2021/05/19 10:36:17;;;;;;;0.50;0.30;;;25.00;42.20;;;;;;5083832;28;20240;-72
2021/05/19 10:38:45;;;;;;;0.50;0.50;;;24.70;42.50;;;;;;5099026;28;20292;-72
2021/05/19 10:41:12;;;;;;;2.80;0.50;;;24.60;43.30;;;;;;5103668;28;20292;-72
2021/05/19 10:43:49;;;;;;;0.30;0.30;;;24.60;44.90;;;;;;5103989;28;20228;-73
2021/05/19 10:47:13;;;;;;;0.30;0.30;;;24.80;45.00;;;;;;5105495;28;20251;-73
2021/05/19 10:49:59;;;;;;;0.83;0.33;;;25.00;43.60;;;;;;5098812;28;20662;-72
2021/05/19 10:58:20;;;;;;;0.27;0.27;;;25.40;42.50;;;;;;5098050;28;20210;-72
2021/05/19 11:00:47;;;;;;;0.33;0.33;;;25.30;43.00;;;;;;5091341;28;20220;-72
2021/05/19 11:03:15;;;;;;;0.30;0.30;;;25.20;42.70;;;;;;5085715;28;20213;-72
2021/05/19 11:05:54;;;;;;;0.50;0.50;;;25.20;41.40;;;;;;5102276;28;20228;-72
2021/05/19 11:08:29;;;;;;;0.60;0.40;;;25.10;42.50;;;;;;5101075;28;20474;-72
2021/05/19 11:11:31;;;;;;;0.40;0.40;;;25.10;41.80;;;;;;5097833;28;20208;-73
2021/05/19 11:14:30;;;;;;;4.17;0.60;;;25.10;42.30;;;;;;5043436;28;20212;-72
2021/05/19 11:17:11;;;;;;;1.00;0.50;;;25.10;42.40;;;;;;5091226;28;20217;-72
2021/05/19 11:19:39;;;;;;;0.90;0.50;;;25.20;40.60;;;;;;5085178;28;20212;-72
2021/05/19 11:22:10;;;;;;;0.30;0.30;;;25.10;42.70;;;;;;5101955;28;20684;-72
2021/05/19 11:24:52;;;;;;;1.97;0.60;;;25.20;43.80;;;;;;5102452;28;20247;-72
2021/05/19 11:27:28;;;;;;;0.87;0.40;;;25.30;42.40;;;;;;5094509;28;20209;-72
2021/05/19 11:29:55;;;;;;;0.40;0.40;;;25.40;42.40;;;;;;5076153;28;20213;-72
2021/05/19 11:32:25;;;;;;;0.50;0.33;;;25.50;41.90;;;;;;5101028;28;20208;-72
2021/05/19 11:34:53;;;;;;;0.23;0.23;;;25.60;41.50;;;;;;5079700;28;20220;-72
2021/05/19 11:37:22;;;;;;;0.60;0.20;;;25.60;41.50;;;;;;5075561;28;20627;-73
2021/05/19 11:39:52;;;;;;;2.27;0.40;;;25.60;41.90;;;;;;5096656;28;20303;-73
2021/05/19 11:42:28;;;;;;;1.03;0.47;;;25.40;41.80;;;;;;5097537;28;20300;-73
2021/05/19 11:45:07;;;;;;;0.87;0.33;;;25.40;42.00;;;;;;5103860;28;20235;-72
2021/05/19 11:47:37;;;;;;;0.97;0.20;;;25.50;41.40;;;;;;5101465;28;20208;-72
2021/05/19 11:50:12;;;;;;;4.10;0.40;;;25.50;40.50;;;;;;5083324;28;20206;-72
2021/05/19 11:52:56;;;;;;;0.70;0.30;;;25.50;42.30;;;;;;5083263;28;20212;-72
2021/05/19 11:55:26;;;;;;;0.67;0.20;;;25.50;41.90;;;;;;5097377;28;20204;-73
2021/05/19 11:58:03;;;;;;;0.37;0.30;;;25.50;41.90;;;;;;5099809;28;20545;-73
2021/05/19 12:00:38;;;;;;;0.93;0.30;;;25.50;40.20;;;;;;5081853;28;20209;-73
2021/05/19 12:03:07;;;;;;;2.03;0.27;;;25.40;39.80;;;;;;5102636;28;20212;-72
2021/05/19 12:05:53;;;;;;;0.30;0.30;;;25.30;40.70;;;;;;5101284;28;20582;-72
2021/05/19 12:08:37;;;;;;;0.80;0.30;;;25.30;39.10;;;;;;5097066;28;20643;-72
2021/05/19 12:11:11;;;;;;;1.67;0.20;;;25.10;39.30;;;;;;5104391;28;20204;-72
2021/05/19 12:13:47;;;;;;;0.30;0.30;;;25.10;41.90;;;;;;5107155;28;20298;-72
2021/05/19 12:16:27;;;;;;;0.77;0.40;;;25.20;42.10;;;;;;5082333;28;20212;-72
2021/05/19 12:19:15;;;;;;;0.50;0.30;;;25.40;41.10;;;;;;5084510;28;20554;-72
2021/05/19 12:21:45;;;;;;;0.77;0.30;;;25.50;41.90;;;;;;5104027;28;20224;-72
2021/05/19 12:24:15;;;;;;;0.43;0.30;;;25.60;39.80;;;;;;5107689;28;20250;-72
2021/05/19 12:26:42;;;;;;;0.50;0.40;;;25.40;40.30;;;;;;5107519;28;20605;-72
2021/05/19 12:29:29;;;;;;;0.70;0.50;;;25.30;39.50;;;;;;5104535;28;20213;-72
2021/05/19 12:32:23;;;;;;;0.30;0.30;;;25.10;40.50;;;;;;5106500;28;20303;-73
2021/05/19 12:35:02;;;;;;;0.73;0.40;;;25.00;40.90;;;;;;5098628;28;20213;-72
2021/05/19 12:37:59;;;;;;;0.93;0.30;;;24.90;41.00;;;;;;5087814;28;20216;-72
2021/05/19 12:40:29;;;;;;;0.30;0.30;;;24.90;41.40;;;;;;5101399;28;20664;-72
2021/05/19 12:43:02;;;;;;;0.40;0.40;;;25.00;42.20;;;;;;5106185;28;20220;-72
2021/05/19 12:45:33;;;;;;;0.60;0.60;;;25.20;41.80;;;;;;5103293;28;20234;-73
2021/05/19 12:48:11;;;;;;;0.53;0.30;;;25.20;40.30;;;;;;5105708;28;20201;-73
2021/05/19 12:50:49;;;;;;;1.80;0.50;;;25.10;41.20;;;;;;5103742;28;20208;-72
2021/05/19 12:53:41;;;;;;;0.87;0.40;;;25.10;41.70;;;;;;5100170;28;20213;-72
2021/05/19 12:56:26;;;;;;;3.00;0.30;;;25.10;42.50;;;;;;5085201;28;20670;-72
2021/05/19 12:59:01;;;;;;;1.27;0.50;;;25.20;43.50;;;;;;5103136;28;20644;-72
2021/05/19 13:01:30;;;;;;;0.30;0.30;;;25.20;40.50;;;;;;5104631;28;20197;-72
2021/05/19 13:04:01;;;;;;;1.37;0.30;;;25.20;42.20;;;;;;5087352;28;20208;-72
2021/05/19 13:06:28;;;;;;;0.60;0.30;;;25.20;42.70;;;;;;5105718;28;20217;-72
2021/05/19 13:08:56;;;;;;;0.43;0.43;;;25.20;41.90;;;;;;5101176;28;20577;-72
2021/05/19 13:11:24;;;;;;;0.20;0.20;;;25.20;40.20;;;;;;5104972;28;20209;-72
2021/05/19 13:13:52;;;;;;;1.20;0.33;;;25.00;40.70;;;;;;5087450;28;20211;-72